sensor_id;sensor_type;location;lat;lon;timestamp;temperature;humidity
53254;DHT22;39148;53.332;6.922;2023-07-29T00:01:33;21.60;84.20
53254;DHT22;39148;53.332;6.922;2023-07-29T00:03:59;21.50;84.20
53254;DHT22;39148;53.332;6.922;2023-07-29T00:06:24;21.60;84.20
53254;DHT22;39148;53.332;6.922;2023-07-29T00:08:50;21.50;84.20
53254;DHT22;39148;53.332;6.922;2023-07-29T00:11:16;21.60;84.20
53254;DHT22;39148;53.332;6.922;2023-07-29T00:13:41;21.50;84.20
53254;DHT22;39148;53.332;6.922;2023-07-29T00:16:07;21.60;84.30
53254;DHT22;39148;53.332;6.922;2023-07-29T00:18:33;21.50;84.20
53254;DHT22;39148;53.332;6.922;2023-07-29T00:20:59;21.50;84.30
53254;DHT22;39148;53.332;6.922;2023-07-29T00:23:24;21.50;84.40
53254;DHT22;39148;53.332;6.922;2023-07-29T00:25:50;21.40;84.30
53254;DHT22;39148;53.332;6.922;2023-07-29T00:28:16;21.40;84.30
53254;DHT22;39148;53.332;6.922;2023-07-29T00:30:41;21.50;84.30
53254;DHT22;39148;53.332;6.922;2023-07-29T00:33:07;21.40;84.40
53254;DHT22;39148;53.332;6.922;2023-07-29T00:35:33;21.30;84.30
53254;DHT22;39148;53.332;6.922;2023-07-29T00:37:59;21.40;84.50
53254;DHT22;39148;53.332;6.922;2023-07-29T00:40:28;21.30;84.40
53254;DHT22;39148;53.332;6.922;2023-07-29T00:42:54;21.40;84.70
53254;DHT22;39148;53.332;6.922;2023-07-29T00:45:19;21.40;84.50
53254;DHT22;39148;53.332;6.922;2023-07-29T00:47:45;21.30;84.50
53254;DHT22;39148;53.332;6.922;2023-07-29T00:50:13;21.30;84.60
53254;DHT22;39148;53.332;6.922;2023-07-29T00:52:39;21.40;84.80
53254;DHT22;39148;53.332;6.922;2023-07-29T00:55:05;21.30;84.60
53254;DHT22;39148;53.332;6.922;2023-07-29T00:57:32;21.30;84.60
53254;DHT22;39148;53.332;6.922;2023-07-29T00:59:59;21.40;84.80
53254;DHT22;39148;53.332;6.922;2023-07-29T01:02:24;21.20;84.70
53254;DHT22;39148;53.332;6.922;2023-07-29T01:04:56;21.30;84.80
53254;DHT22;39148;53.332;6.922;2023-07-29T01:08:01;21.30;84.90
53254;DHT22;39148;53.332;6.922;2023-07-29T01:16:10;21.30;83.80
53254;DHT22;39148;53.332;6.922;2023-07-29T01:18:38;21.20;85.00
53254;DHT22;39148;53.332;6.922;2023-07-29T01:21:08;21.20;84.80
53254;DHT22;39148;53.332;6.922;2023-07-29T01:23:34;21.30;85.00
53254;DHT22;39148;53.332;6.922;2023-07-29T01:26:02;21.30;84.90
53254;DHT22;39148;53.332;6.922;2023-07-29T01:28:28;21.20;84.90
53254;DHT22;39148;53.332;6.922;2023-07-29T01:31:09;21.20;84.90
53254;DHT22;39148;53.332;6.922;2023-07-29T01:33:40;21.20;83.90
53254;DHT22;39148;53.332;6.922;2023-07-29T01:36:19;21.20;85.10
53254;DHT22;39148;53.332;6.922;2023-07-29T01:38:48;21.10;85.10
53254;DHT22;39148;53.332;6.922;2023-07-29T01:41:14;21.10;85.00
53254;DHT22;39148;53.332;6.922;2023-07-29T01:43:41;21.20;85.00
53254;DHT22;39148;53.332;6.922;2023-07-29T01:46:10;21.10;84.90
53254;DHT22;39148;53.332;6.922;2023-07-29T01:48:37;21.10;85.00
53254;DHT22;39148;53.332;6.922;2023-07-29T01:51:03;21.10;84.90
53254;DHT22;39148;53.332;6.922;2023-07-29T01:53:29;21.20;84.90
53254;DHT22;39148;53.332;6.922;2023-07-29T01:55:55;21.10;84.90
53254;DHT22;39148;53.332;6.922;2023-07-29T01:58:22;21.10;84.90
53254;DHT22;39148;53.332;6.922;2023-07-29T02:00:48;21.10;84.90
53254;DHT22;39148;53.332;6.922;2023-07-29T02:03:13;21.10;84.90
53254;DHT22;39148;53.332;6.922;2023-07-29T02:05:39;21.00;84.80
53254;DHT22;39148;53.332;6.922;2023-07-29T02:08:05;21.10;85.00
53254;DHT22;39148;53.332;6.922;2023-07-29T02:10:31;21.10;85.00
53254;DHT22;39148;53.332;6.922;2023-07-29T02:12:57;21.10;85.10
53254;DHT22;39148;53.332;6.922;2023-07-29T02:15:23;21.00;85.00
53254;DHT22;39148;53.332;6.922;2023-07-29T02:17:50;21.10;85.20
53254;DHT22;39148;53.332;6.922;2023-07-29T02:20:16;21.00;85.20
53254;DHT22;39148;53.332;6.922;2023-07-29T02:22:41;21.00;85.10
53254;DHT22;39148;53.332;6.922;2023-07-29T02:25:07;21.00;85.10
53254;DHT22;39148;53.332;6.922;2023-07-29T02:27:33;21.00;85.00
53254;DHT22;39148;53.332;6.922;2023-07-29T02:29:59;21.00;85.10
53254;DHT22;39148;53.332;6.922;2023-07-29T02:32:25;21.00;85.10
53254;DHT22;39148;53.332;6.922;2023-07-29T02:34:50;21.00;85.10
53254;DHT22;39148;53.332;6.922;2023-07-29T02:37:16;21.00;85.10
53254;DHT22;39148;53.332;6.922;2023-07-29T02:39:42;20.90;85.10
53254;DHT22;39148;53.332;6.922;2023-07-29T02:42:08;20.80;85.00
53254;DHT22;39148;53.332;6.922;2023-07-29T02:44:33;21.00;85.00
53254;DHT22;39148;53.332;6.922;2023-07-29T02:46:59;20.90;85.00
53254;DHT22;39148;53.332;6.922;2023-07-29T02:49:25;20.90;85.10
53254;DHT22;39148;53.332;6.922;2023-07-29T02:51:50;20.90;85.60
53254;DHT22;39148;53.332;6.922;2023-07-29T02:54:16;20.90;85.10
53254;DHT22;39148;53.332;6.922;2023-07-29T02:56:42;20.90;85.10
53254;DHT22;39148;53.332;6.922;2023-07-29T02:59:07;20.80;85.00
53254;DHT22;39148;53.332;6.922;2023-07-29T03:01:33;20.90;85.10
53254;DHT22;39148;53.332;6.922;2023-07-29T03:03:59;20.80;85.10
53254;DHT22;39148;53.332;6.922;2023-07-29T03:06:25;20.80;85.10
53254;DHT22;39148;53.332;6.922;2023-07-29T03:08:50;20.80;85.10
53254;DHT22;39148;53.332;6.922;2023-07-29T03:11:16;20.80;85.10
53254;DHT22;39148;53.332;6.922;2023-07-29T03:13:43;20.70;85.10
53254;DHT22;39148;53.332;6.922;2023-07-29T03:16:10;20.80;85.20
53254;DHT22;39148;53.332;6.922;2023-07-29T03:18:37;20.90;85.40
53254;DHT22;39148;53.332;6.922;2023-07-29T03:21:03;20.80;85.20
53254;DHT22;39148;53.332;6.922;2023-07-29T03:23:30;20.90;85.30
53254;DHT22;39148;53.332;6.922;2023-07-29T03:25:57;20.80;85.30
53254;DHT22;39148;53.332;6.922;2023-07-29T03:28:28;20.70;85.30
53254;DHT22;39148;53.332;6.922;2023-07-29T03:30:55;20.80;85.50
53254;DHT22;39148;53.332;6.922;2023-07-29T03:33:21;20.80;85.60
53254;DHT22;39148;53.332;6.922;2023-07-29T03:35:46;20.80;85.20
53254;DHT22;39148;53.332;6.922;2023-07-29T03:38:12;20.80;85.20
53254;DHT22;39148;53.332;6.922;2023-07-29T03:40:39;20.70;85.10
53254;DHT22;39148;53.332;6.922;2023-07-29T03:43:05;20.80;85.30
53254;DHT22;39148;53.332;6.922;2023-07-29T03:45:31;20.70;85.20
53254;DHT22;39148;53.332;6.922;2023-07-29T03:47:56;20.70;85.30
53254;DHT22;39148;53.332;6.922;2023-07-29T03:50:22;20.70;85.20
53254;DHT22;39148;53.332;6.922;2023-07-29T03:52:48;20.60;85.10
53254;DHT22;39148;53.332;6.922;2023-07-29T03:55:13;20.80;85.30
53254;DHT22;39148;53.332;6.922;2023-07-29T03:57:39;20.70;85.20
53254;DHT22;39148;53.332;6.922;2023-07-29T04:00:05;20.70;85.30
53254;DHT22;39148;53.332;6.922;2023-07-29T04:02:31;20.60;85.00
53254;DHT22;39148;53.332;6.922;2023-07-29T04:04:57;20.70;85.40
53254;DHT22;39148;53.332;6.922;2023-07-29T04:07:23;20.60;85.30
53254;DHT22;39148;53.332;6.922;2023-07-29T04:09:48;20.70;85.40
53254;DHT22;39148;53.332;6.922;2023-07-29T04:12:15;20.70;85.30
53254;DHT22;39148;53.332;6.922;2023-07-29T04:14:41;20.60;85.40
53254;DHT22;39148;53.332;6.922;2023-07-29T04:17:07;20.70;85.40
53254;DHT22;39148;53.332;6.922;2023-07-29T04:19:33;20.70;85.40
53254;DHT22;39148;53.332;6.922;2023-07-29T04:21:59;20.50;85.30
53254;DHT22;39148;53.332;6.922;2023-07-29T04:24:25;20.60;85.40
53254;DHT22;39148;53.332;6.922;2023-07-29T04:26:50;20.50;85.30
53254;DHT22;39148;53.332;6.922;2023-07-29T04:29:16;20.50;85.40
53254;DHT22;39148;53.332;6.922;2023-07-29T04:31:42;20.50;85.40
53254;DHT22;39148;53.332;6.922;2023-07-29T04:34:08;20.60;85.50
53254;DHT22;39148;53.332;6.922;2023-07-29T04:36:34;20.60;85.50
53254;DHT22;39148;53.332;6.922;2023-07-29T04:39:00;20.60;85.50
53254;DHT22;39148;53.332;6.922;2023-07-29T04:41:26;20.60;85.40
53254;DHT22;39148;53.332;6.922;2023-07-29T04:43:51;20.50;85.40
53254;DHT22;39148;53.332;6.922;2023-07-29T04:46:18;20.60;85.60
53254;DHT22;39148;53.332;6.922;2023-07-29T04:48:43;20.50;85.40
53254;DHT22;39148;53.332;6.922;2023-07-29T04:51:09;20.70;85.60
53254;DHT22;39148;53.332;6.922;2023-07-29T04:53:34;20.50;85.50
53254;DHT22;39148;53.332;6.922;2023-07-29T04:56:02;20.50;85.50
53254;DHT22;39148;53.332;6.922;2023-07-29T04:58:28;20.60;85.60
53254;DHT22;39148;53.332;6.922;2023-07-29T05:00:55;20.50;85.50
53254;DHT22;39148;53.332;6.922;2023-07-29T05:03:21;20.50;85.60
53254;DHT22;39148;53.332;6.922;2023-07-29T05:05:47;20.50;85.50
53254;DHT22;39148;53.332;6.922;2023-07-29T05:08:12;20.50;85.50
53254;DHT22;39148;53.332;6.922;2023-07-29T05:10:38;20.40;85.40
53254;DHT22;39148;53.332;6.922;2023-07-29T05:13:04;20.50;85.50
53254;DHT22;39148;53.332;6.922;2023-07-29T05:15:29;20.50;85.50
53254;DHT22;39148;53.332;6.922;2023-07-29T05:17:56;20.50;85.60
53254;DHT22;39148;53.332;6.922;2023-07-29T05:20:22;20.40;85.60
53254;DHT22;39148;53.332;6.922;2023-07-29T05:22:47;20.50;85.60
53254;DHT22;39148;53.332;6.922;2023-07-29T05:25:13;20.50;85.50
53254;DHT22;39148;53.332;6.922;2023-07-29T05:27:39;20.40;85.40
53254;DHT22;39148;53.332;6.922;2023-07-29T05:30:05;20.40;85.50
53254;DHT22;39148;53.332;6.922;2023-07-29T05:32:32;20.40;85.10
53254;DHT22;39148;53.332;6.922;2023-07-29T05:34:57;20.40;85.50
53254;DHT22;39148;53.332;6.922;2023-07-29T05:37:23;20.50;85.60
53254;DHT22;39148;53.332;6.922;2023-07-29T05:39:49;20.40;85.60
53254;DHT22;39148;53.332;6.922;2023-07-29T05:42:14;20.40;85.50
53254;DHT22;39148;53.332;6.922;2023-07-29T05:44:40;20.40;85.60
53254;DHT22;39148;53.332;6.922;2023-07-29T05:47:06;20.40;85.50
53254;DHT22;39148;53.332;6.922;2023-07-29T05:49:31;20.40;85.60
53254;DHT22;39148;53.332;6.922;2023-07-29T05:51:57;20.60;85.70
53254;DHT22;39148;53.332;6.922;2023-07-29T05:54:23;20.40;85.60
53254;DHT22;39148;53.332;6.922;2023-07-29T05:56:49;20.30;85.60
53254;DHT22;39148;53.332;6.922;2023-07-29T05:59:14;20.40;85.70
53254;DHT22;39148;53.332;6.922;2023-07-29T06:01:40;20.30;85.60
53254;DHT22;39148;53.332;6.922;2023-07-29T06:04:06;20.30;85.60
53254;DHT22;39148;53.332;6.922;2023-07-29T06:06:31;19.70;85.20
53254;DHT22;39148;53.332;6.922;2023-07-29T06:08:57;20.40;85.60
53254;DHT22;39148;53.332;6.922;2023-07-29T06:11:23;20.50;85.60
53254;DHT22;39148;53.332;6.922;2023-07-29T06:13:49;20.40;85.60
53254;DHT22;39148;53.332;6.922;2023-07-29T06:16:15;20.30;85.60
53254;DHT22;39148;53.332;6.922;2023-07-29T06:18:40;20.30;85.50
53254;DHT22;39148;53.332;6.922;2023-07-29T06:21:06;20.30;85.50
53254;DHT22;39148;53.332;6.922;2023-07-29T06:23:34;20.30;85.60
53254;DHT22;39148;53.332;6.922;2023-07-29T06:25:59;20.40;85.50
53254;DHT22;39148;53.332;6.922;2023-07-29T06:28:26;20.30;85.50
53254;DHT22;39148;53.332;6.922;2023-07-29T06:30:52;20.40;85.60
53254;DHT22;39148;53.332;6.922;2023-07-29T06:33:18;20.40;85.60
53254;DHT22;39148;53.332;6.922;2023-07-29T06:35:44;20.30;85.50
53254;DHT22;39148;53.332;6.922;2023-07-29T06:38:09;20.40;85.50
53254;DHT22;39148;53.332;6.922;2023-07-29T06:40:35;20.30;85.40
53254;DHT22;39148;53.332;6.922;2023-07-29T06:43:01;20.40;85.40
53254;DHT22;39148;53.332;6.922;2023-07-29T06:45:26;20.30;85.40
53254;DHT22;39148;53.332;6.922;2023-07-29T06:47:52;20.40;85.40
53254;DHT22;39148;53.332;6.922;2023-07-29T06:50:18;20.40;85.40
53254;DHT22;39148;53.332;6.922;2023-07-29T06:52:44;20.40;85.20
53254;DHT22;39148;53.332;6.922;2023-07-29T06:55:10;20.50;85.50
53254;DHT22;39148;53.332;6.922;2023-07-29T06:57:35;20.50;85.30
53254;DHT22;39148;53.332;6.922;2023-07-29T07:00:02;20.40;85.30
53254;DHT22;39148;53.332;6.922;2023-07-29T07:02:28;20.50;85.40
53254;DHT22;39148;53.332;6.922;2023-07-29T07:04:53;20.40;85.20
53254;DHT22;39148;53.332;6.922;2023-07-29T07:07:19;20.40;85.20
53254;DHT22;39148;53.332;6.922;2023-07-29T07:09:45;20.40;85.30
53254;DHT22;39148;53.332;6.922;2023-07-29T07:12:10;20.50;85.30
53254;DHT22;39148;53.332;6.922;2023-07-29T07:14:37;20.50;85.20
53254;DHT22;39148;53.332;6.922;2023-07-29T07:17:03;20.50;85.30
53254;DHT22;39148;53.332;6.922;2023-07-29T07:19:28;20.50;85.10
53254;DHT22;39148;53.332;6.922;2023-07-29T07:21:54;20.50;85.20
53254;DHT22;39148;53.332;6.922;2023-07-29T07:24:20;20.50;85.20
53254;DHT22;39148;53.332;6.922;2023-07-29T07:26:45;20.50;85.10
53254;DHT22;39148;53.332;6.922;2023-07-29T07:29:11;20.60;85.10
53254;DHT22;39148;53.332;6.922;2023-07-29T07:31:37;20.60;85.10
53254;DHT22;39148;53.332;6.922;2023-07-29T07:34:02;20.60;85.10
53254;DHT22;39148;53.332;6.922;2023-07-29T07:36:29;20.70;85.60
53254;DHT22;39148;53.332;6.922;2023-07-29T07:38:54;20.60;85.20
53254;DHT22;39148;53.332;6.922;2023-07-29T07:41:20;20.60;85.10
53254;DHT22;39148;53.332;6.922;2023-07-29T07:43:46;20.60;85.00
53254;DHT22;39148;53.332;6.922;2023-07-29T07:46:12;20.60;85.00
53254;DHT22;39148;53.332;6.922;2023-07-29T07:48:38;20.80;85.10
53254;DHT22;39148;53.332;6.922;2023-07-29T07:51:11;20.60;85.10
53254;DHT22;39148;53.332;6.922;2023-07-29T07:53:37;20.60;85.30
53254;DHT22;39148;53.332;6.922;2023-07-29T07:56:03;20.60;85.00
53254;DHT22;39148;53.332;6.922;2023-07-29T07:58:29;20.80;85.10
53254;DHT22;39148;53.332;6.922;2023-07-29T08:01:07;20.60;84.90
53254;DHT22;39148;53.332;6.922;2023-07-29T08:03:34;20.70;84.00
53254;DHT22;39148;53.332;6.922;2023-07-29T08:05:59;20.80;85.00
53254;DHT22;39148;53.332;6.922;2023-07-29T08:08:26;20.70;84.90
53254;DHT22;39148;53.332;6.922;2023-07-29T08:10:56;20.70;85.00
53254;DHT22;39148;53.332;6.922;2023-07-29T08:13:23;20.80;85.20
53254;DHT22;39148;53.332;6.922;2023-07-29T08:15:50;20.70;85.00
53254;DHT22;39148;53.332;6.922;2023-07-29T08:18:16;20.70;85.00
53254;DHT22;39148;53.332;6.922;2023-07-29T08:20:59;20.70;84.90
53254;DHT22;39148;53.332;6.922;2023-07-29T08:23:34;20.60;85.10
53254;DHT22;39148;53.332;6.922;2023-07-29T08:26:02;20.70;83.60
53254;DHT22;39148;53.332;6.922;2023-07-29T08:28:31;20.70;84.90
53254;DHT22;39148;53.332;6.922;2023-07-29T08:30:57;20.70;84.90
53254;DHT22;39148;53.332;6.922;2023-07-29T08:33:23;20.80;84.80
53254;DHT22;39148;53.332;6.922;2023-07-29T08:35:48;20.90;84.70
53254;DHT22;39148;53.332;6.922;2023-07-29T08:38:14;20.80;84.70
53254;DHT22;39148;53.332;6.922;2023-07-29T08:43:32;20.70;83.70
53254;DHT22;39148;53.332;6.922;2023-07-29T08:46:00;20.90;85.40
53254;DHT22;39148;53.332;6.922;2023-07-29T08:48:33;20.90;84.70
53254;DHT22;39148;53.332;6.922;2023-07-29T08:51:04;20.90;85.00
53254;DHT22;39148;53.332;6.922;2023-07-29T08:53:31;20.90;84.80
53254;DHT22;39148;53.332;6.922;2023-07-29T08:55:57;20.80;84.50
53254;DHT22;39148;53.332;6.922;2023-07-29T08:58:24;21.00;84.70
53254;DHT22;39148;53.332;6.922;2023-07-29T09:00:50;21.10;84.70
53254;DHT22;39148;53.332;6.922;2023-07-29T09:03:16;21.00;84.60
53254;DHT22;39148;53.332;6.922;2023-07-29T09:05:41;21.20;84.60
53254;DHT22;39148;53.332;6.922;2023-07-29T09:08:07;21.00;84.50
53254;DHT22;39148;53.332;6.922;2023-07-29T09:10:37;21.00;84.60
53254;DHT22;39148;53.332;6.922;2023-07-29T09:13:03;21.20;84.60
53254;DHT22;39148;53.332;6.922;2023-07-29T09:15:31;21.10;84.40
53254;DHT22;39148;53.332;6.922;2023-07-29T09:17:57;21.10;84.50
53254;DHT22;39148;53.332;6.922;2023-07-29T09:20:27;21.10;84.40
53254;DHT22;39148;53.332;6.922;2023-07-29T09:22:55;21.20;83.30
53254;DHT22;39148;53.332;6.922;2023-07-29T09:25:25;21.30;84.60
53254;DHT22;39148;53.332;6.922;2023-07-29T09:27:51;21.10;84.50
53254;DHT22;39148;53.332;6.922;2023-07-29T09:30:17;21.10;84.20
53254;DHT22;39148;53.332;6.922;2023-07-29T09:32:42;21.20;84.30
53254;DHT22;39148;53.332;6.922;2023-07-29T09:35:14;21.20;84.20
53254;DHT22;39148;53.332;6.922;2023-07-29T09:37:40;21.30;84.50
53254;DHT22;39148;53.332;6.922;2023-07-29T09:40:06;21.30;84.30
53254;DHT22;39148;53.332;6.922;2023-07-29T09:42:32;21.40;83.90
53254;DHT22;39148;53.332;6.922;2023-07-29T09:44:58;21.30;84.10
53254;DHT22;39148;53.332;6.922;2023-07-29T09:47:26;21.30;84.20
53254;DHT22;39148;53.332;6.922;2023-07-29T09:49:53;21.40;84.30
53254;DHT22;39148;53.332;6.922;2023-07-29T09:52:21;21.40;84.20
53254;DHT22;39148;53.332;6.922;2023-07-29T09:54:48;21.40;84.10
53254;DHT22;39148;53.332;6.922;2023-07-29T09:57:14;21.50;84.10
53254;DHT22;39148;53.332;6.922;2023-07-29T09:59:41;21.50;84.10
53254;DHT22;39148;53.332;6.922;2023-07-29T10:02:14;21.40;83.90
53254;DHT22;39148;53.332;6.922;2023-07-29T10:04:42;21.50;84.20
53254;DHT22;39148;53.332;6.922;2023-07-29T10:07:10;21.60;84.00
53254;DHT22;39148;53.332;6.922;2023-07-29T10:09:37;21.60;84.10
53254;DHT22;39148;53.332;6.922;2023-07-29T10:12:06;21.50;84.00
53254;DHT22;39148;53.332;6.922;2023-07-29T10:14:32;21.50;83.70
53254;DHT22;39148;53.332;6.922;2023-07-29T10:16:58;21.50;83.80
53254;DHT22;39148;53.332;6.922;2023-07-29T10:19:25;21.60;83.80
53254;DHT22;39148;53.332;6.922;2023-07-29T10:21:52;21.70;83.80
53254;DHT22;39148;53.332;6.922;2023-07-29T10:24:24;21.70;83.90
53254;DHT22;39148;53.332;6.922;2023-07-29T10:26:58;21.70;83.90
53254;DHT22;39148;53.332;6.922;2023-07-29T10:29:24;21.80;83.80
53254;DHT22;39148;53.332;6.922;2023-07-29T10:31:55;21.90;83.80
53254;DHT22;39148;53.332;6.922;2023-07-29T10:34:22;21.80;83.70
53254;DHT22;39148;53.332;6.922;2023-07-29T10:36:49;21.70;83.50
53254;DHT22;39148;53.332;6.922;2023-07-29T10:39:15;21.90;83.70
53254;DHT22;39148;53.332;6.922;2023-07-29T10:42:01;22.00;83.50
53254;DHT22;39148;53.332;6.922;2023-07-29T10:49:40;22.00;83.60
53254;DHT22;39148;53.332;6.922;2023-07-29T10:52:06;22.00;84.00
53254;DHT22;39148;53.332;6.922;2023-07-29T10:54:46;21.90;83.20
53254;DHT22;39148;53.332;6.922;2023-07-29T10:57:16;22.00;82.30
53254;DHT22;39148;53.332;6.922;2023-07-29T10:59:54;22.00;83.50
53254;DHT22;39148;53.332;6.922;2023-07-29T11:02:21;22.00;83.40
53254;DHT22;39148;53.332;6.922;2023-07-29T11:04:53;22.10;83.20
53254;DHT22;39148;53.332;6.922;2023-07-29T11:07:20;22.00;83.00
53254;DHT22;39148;53.332;6.922;2023-07-29T11:12:40;22.10;81.90
53254;DHT22;39148;53.332;6.922;2023-07-29T11:17:38;22.10;82.90
53254;DHT22;39148;53.332;6.922;2023-07-29T11:20:05;22.30;83.00
53254;DHT22;39148;53.332;6.922;2023-07-29T11:22:33;20.10;81.60
53254;DHT22;39148;53.332;6.922;2023-07-29T11:24:59;22.20;82.80
53254;DHT22;39148;53.332;6.922;2023-07-29T11:27:25;22.30;82.60
53254;DHT22;39148;53.332;6.922;2023-07-29T11:29:57;22.20;82.50
53254;DHT22;39148;53.332;6.922;2023-07-29T11:32:23;22.30;82.70
53254;DHT22;39148;53.332;6.922;2023-07-29T11:34:48;22.30;82.40
53254;DHT22;39148;53.332;6.922;2023-07-29T11:37:14;22.30;82.40
53254;DHT22;39148;53.332;6.922;2023-07-29T11:39:41;22.30;82.20
53254;DHT22;39148;53.332;6.922;2023-07-29T11:42:11;22.30;82.40
53254;DHT22;39148;53.332;6.922;2023-07-29T11:44:37;22.30;82.50
53254;DHT22;39148;53.332;6.922;2023-07-29T11:47:07;22.40;82.20
53254;DHT22;39148;53.332;6.922;2023-07-29T11:49:34;22.40;82.40
53254;DHT22;39148;53.332;6.922;2023-07-29T11:52:00;22.30;82.20
53254;DHT22;39148;53.332;6.922;2023-07-29T11:54:26;22.40;82.30
53254;DHT22;39148;53.332;6.922;2023-07-29T11:56:52;22.40;82.10
53254;DHT22;39148;53.332;6.922;2023-07-29T11:59:18;22.40;82.00
53254;DHT22;39148;53.332;6.922;2023-07-29T12:01:45;22.40;82.10
53254;DHT22;39148;53.332;6.922;2023-07-29T12:04:11;22.50;82.00
53254;DHT22;39148;53.332;6.922;2023-07-29T12:06:38;22.40;82.00
53254;DHT22;39148;53.332;6.922;2023-07-29T12:09:04;22.60;82.10
53254;DHT22;39148;53.332;6.922;2023-07-29T12:11:30;22.50;81.80
53254;DHT22;39148;53.332;6.922;2023-07-29T12:13:57;22.60;82.00
53254;DHT22;39148;53.332;6.922;2023-07-29T12:16:24;22.50;81.80
53254;DHT22;39148;53.332;6.922;2023-07-29T12:18:50;22.70;81.80
53254;DHT22;39148;53.332;6.922;2023-07-29T12:21:18;22.50;81.70
53254;DHT22;39148;53.332;6.922;2023-07-29T12:23:44;22.70;81.90
53254;DHT22;39148;53.332;6.922;2023-07-29T12:26:10;22.60;81.70
53254;DHT22;39148;53.332;6.922;2023-07-29T12:28:36;22.60;81.70
53254;DHT22;39148;53.332;6.922;2023-07-29T12:31:01;22.50;81.60
53254;DHT22;39148;53.332;6.922;2023-07-29T12:33:37;22.60;81.60
53254;DHT22;39148;53.332;6.922;2023-07-29T12:36:07;22.60;80.60
53254;DHT22;39148;53.332;6.922;2023-07-29T12:38:33;22.60;82.10
53254;DHT22;39148;53.332;6.922;2023-07-29T12:40:59;22.60;81.50
53254;DHT22;39148;53.332;6.922;2023-07-29T12:43:25;22.70;81.50
53254;DHT22;39148;53.332;6.922;2023-07-29T12:45:52;22.60;81.60
53254;DHT22;39148;53.332;6.922;2023-07-29T12:48:17;22.70;81.50
53254;DHT22;39148;53.332;6.922;2023-07-29T12:50:43;22.70;81.40
53254;DHT22;39148;53.332;6.922;2023-07-29T12:53:09;22.70;81.40
53254;DHT22;39148;53.332;6.922;2023-07-29T12:55:38;22.60;80.50
53254;DHT22;39148;53.332;6.922;2023-07-29T12:58:04;22.60;81.40
53254;DHT22;39148;53.332;6.922;2023-07-29T13:00:30;22.70;81.40
53254;DHT22;39148;53.332;6.922;2023-07-29T13:02:56;22.70;81.40
53254;DHT22;39148;53.332;6.922;2023-07-29T13:05:21;22.80;81.50
53254;DHT22;39148;53.332;6.922;2023-07-29T13:07:47;22.80;81.30
53254;DHT22;39148;53.332;6.922;2023-07-29T13:10:13;22.80;81.40
53254;DHT22;39148;53.332;6.922;2023-07-29T13:12:39;22.80;81.50
53254;DHT22;39148;53.332;6.922;2023-07-29T13:15:06;22.80;81.50
53254;DHT22;39148;53.332;6.922;2023-07-29T13:17:32;22.80;81.40
53254;DHT22;39148;53.332;6.922;2023-07-29T13:19:58;22.80;81.60
53254;DHT22;39148;53.332;6.922;2023-07-29T13:22:24;22.80;81.40
53254;DHT22;39148;53.332;6.922;2023-07-29T13:24:49;22.70;81.40
53254;DHT22;39148;53.332;6.922;2023-07-29T13:27:15;22.90;81.50
53254;DHT22;39148;53.332;6.922;2023-07-29T13:29:41;22.80;81.40
53254;DHT22;39148;53.332;6.922;2023-07-29T13:32:07;22.80;81.40
53254;DHT22;39148;53.332;6.922;2023-07-29T13:34:33;22.90;81.30
53254;DHT22;39148;53.332;6.922;2023-07-29T13:37:00;22.90;81.50
53254;DHT22;39148;53.332;6.922;2023-07-29T13:39:25;22.90;81.40
53254;DHT22;39148;53.332;6.922;2023-07-29T13:41:52;22.90;81.40
53254;DHT22;39148;53.332;6.922;2023-07-29T13:44:18;22.90;81.40
53254;DHT22;39148;53.332;6.922;2023-07-29T13:46:44;22.90;81.30
53254;DHT22;39148;53.332;6.922;2023-07-29T13:49:10;22.90;81.40
53254;DHT22;39148;53.332;6.922;2023-07-29T13:51:35;23.00;81.50
53254;DHT22;39148;53.332;6.922;2023-07-29T13:54:01;22.80;81.40
53254;DHT22;39148;53.332;6.922;2023-07-29T13:56:27;22.90;81.30
53254;DHT22;39148;53.332;6.922;2023-07-29T13:58:52;22.90;81.30
53254;DHT22;39148;53.332;6.922;2023-07-29T14:01:18;22.90;81.30
53254;DHT22;39148;53.332;6.922;2023-07-29T14:03:44;23.00;81.40
53254;DHT22;39148;53.332;6.922;2023-07-29T14:06:09;23.00;81.40
53254;DHT22;39148;53.332;6.922;2023-07-29T14:08:35;22.90;81.40
53254;DHT22;39148;53.332;6.922;2023-07-29T14:11:01;23.00;81.40
53254;DHT22;39148;53.332;6.922;2023-07-29T14:13:26;22.90;81.40
53254;DHT22;39148;53.332;6.922;2023-07-29T14:15:52;22.90;81.40
53254;DHT22;39148;53.332;6.922;2023-07-29T14:18:18;23.00;81.40
53254;DHT22;39148;53.332;6.922;2023-07-29T14:20:43;23.00;81.40
53254;DHT22;39148;53.332;6.922;2023-07-29T14:23:10;22.90;81.40
53254;DHT22;39148;53.332;6.922;2023-07-29T14:25:35;22.90;81.40
53254;DHT22;39148;53.332;6.922;2023-07-29T14:28:01;23.00;81.40
53254;DHT22;39148;53.332;6.922;2023-07-29T14:30:26;23.00;81.40
53254;DHT22;39148;53.332;6.922;2023-07-29T14:32:52;22.90;81.40
53254;DHT22;39148;53.332;6.922;2023-07-29T14:35:18;22.90;81.40
53254;DHT22;39148;53.332;6.922;2023-07-29T14:37:43;23.00;81.40
53254;DHT22;39148;53.332;6.922;2023-07-29T14:40:09;22.90;81.30
53254;DHT22;39148;53.332;6.922;2023-07-29T14:42:35;23.00;81.20
53254;DHT22;39148;53.332;6.922;2023-07-29T14:45:00;23.00;81.40
53254;DHT22;39148;53.332;6.922;2023-07-29T14:47:26;23.00;81.40
53254;DHT22;39148;53.332;6.922;2023-07-29T14:49:52;23.00;81.40
53254;DHT22;39148;53.332;6.922;2023-07-29T14:52:17;23.40;81.70
53254;DHT22;39148;53.332;6.922;2023-07-29T14:54:43;23.00;81.40
53254;DHT22;39148;53.332;6.922;2023-07-29T14:57:10;23.00;81.40
53254;DHT22;39148;53.332;6.922;2023-07-29T14:59:35;23.00;81.50
53254;DHT22;39148;53.332;6.922;2023-07-29T15:02:01;23.00;81.40
53254;DHT22;39148;53.332;6.922;2023-07-29T15:04:26;23.00;81.40
53254;DHT22;39148;53.332;6.922;2023-07-29T15:06:52;23.10;81.40
53254;DHT22;39148;53.332;6.922;2023-07-29T15:09:18;23.10;81.50
53254;DHT22;39148;53.332;6.922;2023-07-29T15:11:43;23.10;81.40
53254;DHT22;39148;53.332;6.922;2023-07-29T15:14:09;23.10;81.40
53254;DHT22;39148;53.332;6.922;2023-07-29T15:16:35;23.20;81.50
53254;DHT22;39148;53.332;6.922;2023-07-29T15:19:02;23.10;81.40
53254;DHT22;39148;53.332;6.922;2023-07-29T15:21:29;23.20;81.50
53254;DHT22;39148;53.332;6.922;2023-07-29T15:23:55;23.10;81.30
53254;DHT22;39148;53.332;6.922;2023-07-29T15:26:21;23.10;81.30
53254;DHT22;39148;53.332;6.922;2023-07-29T15:28:47;23.20;81.30
53254;DHT22;39148;53.332;6.922;2023-07-29T15:31:13;23.10;81.30
53254;DHT22;39148;53.332;6.922;2023-07-29T15:33:38;23.10;81.30
53254;DHT22;39148;53.332;6.922;2023-07-29T15:36:04;23.20;81.30
53254;DHT22;39148;53.332;6.922;2023-07-29T15:38:30;23.20;81.30
53254;DHT22;39148;53.332;6.922;2023-07-29T15:40:56;23.20;81.20
53254;DHT22;39148;53.332;6.922;2023-07-29T15:43:22;23.20;81.10
53254;DHT22;39148;53.332;6.922;2023-07-29T15:45:49;23.20;81.20